sensor_id;sensor_type;location;lat;lon;timestamp;pressure;altitude;pressure_sealevel;temperature;humidity
62510;BME280;48558;48.242;11.654;2024-02-26T00:03:37;94539.47;;;0.83;100.00
62510;BME280;48558;48.242;11.654;2024-02-26T00:07:51;94548.44;;;0.71;100.00
62510;BME280;48558;48.242;11.654;2024-02-26T00:12:04;94540.97;;;0.84;100.00
62510;BME280;48558;48.242;11.654;2024-02-26T00:16:17;94548.38;;;0.84;100.00
62510;BME280;48558;48.242;11.654;2024-02-26T00:20:29;94530.75;;;0.88;100.00
62510;BME280;48558;48.242;11.654;2024-02-26T00:24:42;94554.50;;;0.75;100.00
62510;BME280;48558;48.242;11.654;2024-02-26T00:28:54;94533.66;;;0.72;100.00
62510;BME280;48558;48.242;11.654;2024-02-26T00:33:07;94535.22;;;0.60;100.00
62510;BME280;48558;48.242;11.654;2024-02-26T00:37:20;94530.09;;;0.62;100.00
62510;BME280;48558;48.242;11.654;2024-02-26T00:41:33;94531.72;;;0.60;100.00
62510;BME280;48558;48.242;11.654;2024-02-26T00:45:45;94506.94;;;0.36;100.00
62510;BME280;48558;48.242;11.654;2024-02-26T00:49:59;94525.66;;;0.56;100.00
62510;BME280;48558;48.242;11.654;2024-02-26T00:54:12;94525.22;;;0.57;100.00
62510;BME280;48558;48.242;11.654;2024-02-26T00:58:25;94515.53;;;0.35;100.00
62510;BME280;48558;48.242;11.654;2024-02-26T01:02:37;94517.16;;;0.32;100.00
62510;BME280;48558;48.242;11.654;2024-02-26T01:06:51;94507.03;;;0.11;100.00
62510;BME280;48558;48.242;11.654;2024-02-26T01:11:04;94508.63;;;0.21;100.00
62510;BME280;48558;48.242;11.654;2024-02-26T01:15:16;94504.19;;;0.15;100.00
62510;BME280;48558;48.242;11.654;2024-02-26T01:19:31;94521.44;;;0.21;100.00
62510;BME280;48558;48.242;11.654;2024-02-26T01:23:49;94524.50;;;0.44;100.00
62510;BME280;48558;48.242;11.654;2024-02-26T01:28:02;94519.56;;;0.30;100.00
62510;BME280;48558;48.242;11.654;2024-02-26T01:32:16;94515.13;;;0.24;100.00
62510;BME280;48558;48.242;11.654;2024-02-26T01:36:28;94510.69;;;0.17;100.00
62510;BME280;48558;48.242;11.654;2024-02-26T01:40:41;94510.78;;;0.14;100.00
62510;BME280;48558;48.242;11.654;2024-02-26T01:44:54;94512.97;;;0.19;100.00
62510;BME280;48558;48.242;11.654;2024-02-26T01:49:08;94515.75;;;0.28;100.00
62510;BME280;48558;48.242;11.654;2024-02-26T01:53:24;94502.66;;;0.14;100.00
62510;BME280;48558;48.242;11.654;2024-02-26T01:57:37;94508.97;;;0.11;100.00
62510;BME280;48558;48.242;11.654;2024-02-26T02:01:55;94501.16;;;0.13;100.00
62510;BME280;48558;48.242;11.654;2024-02-26T02:06:11;94500.06;;;0.10;100.00
62510;BME280;48558;48.242;11.654;2024-02-26T02:10:26;94487.03;;;0.05;100.00
62510;BME280;48558;48.242;11.654;2024-02-26T02:14:39;94490.91;;;0.17;100.00
62510;BME280;48558;48.242;11.654;2024-02-26T02:18:51;94476.41;;;-0.02;100.00
62510;BME280;48558;48.242;11.654;2024-02-26T02:23:05;94492.69;;;-0.02;100.00
62510;BME280;48558;48.242;11.654;2024-02-26T02:27:19;94495.09;;;-0.04;100.00
62510;BME280;48558;48.242;11.654;2024-02-26T02:31:32;94485.13;;;-0.07;100.00
62510;BME280;48558;48.242;11.654;2024-02-26T02:35:45;94482.75;;;-0.05;100.00
62510;BME280;48558;48.242;11.654;2024-02-26T02:40:01;94492.38;;;0.09;100.00
62510;BME280;48558;48.242;11.654;2024-02-26T02:44:14;94498.53;;;0.09;100.00
62510;BME280;48558;48.242;11.654;2024-02-26T02:48:26;94475.75;;;0.07;100.00
62510;BME280;48558;48.242;11.654;2024-02-26T02:52:39;94496.44;;;0.26;100.00
62510;BME280;48558;48.242;11.654;2024-02-26T02:56:52;94497.44;;;0.19;100.00
62510;BME280;48558;48.242;11.654;2024-02-26T03:01:06;94494.50;;;0.14;100.00
62510;BME280;48558;48.242;11.654;2024-02-26T03:05:18;94492.38;;;0.09;100.00
62510;BME280;48558;48.242;11.654;2024-02-26T03:09:31;94489.66;;;-0.04;100.00
62510;BME280;48558;48.242;11.654;2024-02-26T03:13:44;94491.84;;;0.01;100.00
62510;BME280;48558;48.242;11.654;2024-02-26T03:17:57;94470.75;;;0.05;100.00
62510;BME280;48558;48.242;11.654;2024-02-26T03:22:10;94467.03;;;0.12;100.00
62510;BME280;48558;48.242;11.654;2024-02-26T03:26:23;94451.44;;;0.03;100.00
62510;BME280;48558;48.242;11.654;2024-02-26T03:30:35;94471.22;;;0.25;100.00
62510;BME280;48558;48.242;11.654;2024-02-26T03:34:48;94469.66;;;0.37;100.00
62510;BME280;48558;48.242;11.654;2024-02-26T03:39:01;94471.75;;;0.54;100.00
62510;BME280;48558;48.242;11.654;2024-02-26T03:43:17;94481.13;;;0.53;100.00
62510;BME280;48558;48.242;11.654;2024-02-26T03:47:29;94474.34;;;0.58;100.00
62510;BME280;48558;48.242;11.654;2024-02-26T03:51:42;94479.78;;;0.58;100.00
62510;BME280;48558;48.242;11.654;2024-02-26T03:55:54;94471.19;;;0.59;100.00
62510;BME280;48558;48.242;11.654;2024-02-26T04:00:08;94470.22;;;0.75;100.00
62510;BME280;48558;48.242;11.654;2024-02-26T04:04:21;94459.00;;;0.64;100.00
62510;BME280;48558;48.242;11.654;2024-02-26T04:08:34;94471.69;;;0.67;100.00
62510;BME280;48558;48.242;11.654;2024-02-26T04:12:46;94463.28;;;0.74;100.00
62510;BME280;48558;48.242;11.654;2024-02-26T04:16:59;94471.94;;;0.82;100.00
62510;BME280;48558;48.242;11.654;2024-02-26T04:21:11;94468.53;;;0.90;100.00
62510;BME280;48558;48.242;11.654;2024-02-26T04:25:24;94455.41;;;0.98;100.00
62510;BME280;48558;48.242;11.654;2024-02-26T04:29:37;94468.69;;;0.96;100.00
62510;BME280;48558;48.242;11.654;2024-02-26T04:33:49;94482.59;;;0.98;100.00
62510;BME280;48558;48.242;11.654;2024-02-26T04:38:02;94485.81;;;1.05;100.00
62510;BME280;48558;48.242;11.654;2024-02-26T04:42:15;94493.53;;;1.07;100.00
62510;BME280;48558;48.242;11.654;2024-02-26T04:46:27;94479.16;;;0.97;100.00
62510;BME280;48558;48.242;11.654;2024-02-26T04:50:40;94484.59;;;0.97;100.00
62510;BME280;48558;48.242;11.654;2024-02-26T04:54:53;94480.03;;;0.94;100.00
62510;BME280;48558;48.242;11.654;2024-02-26T04:59:06;94480.91;;;0.91;100.00
62510;BME280;48558;48.242;11.654;2024-02-26T05:03:19;94482.63;;;0.76;100.00
62510;BME280;48558;48.242;11.654;2024-02-26T05:07:31;94478.06;;;0.73;100.00
62510;BME280;48558;48.242;11.654;2024-02-26T05:11:44;94485.59;;;0.69;100.00
62510;BME280;48558;48.242;11.654;2024-02-26T05:15:57;94467.44;;;0.66;100.00
62510;BME280;48558;48.242;11.654;2024-02-26T05:20:10;94470.44;;;0.81;100.00
62510;BME280;48558;48.242;11.654;2024-02-26T05:24:22;94477.50;;;0.78;100.00
62510;BME280;48558;48.242;11.654;2024-02-26T05:28:35;94487.63;;;0.78;100.00
62510;BME280;48558;48.242;11.654;2024-02-26T05:32:49;94490.16;;;0.72;100.00
62510;BME280;48558;48.242;11.654;2024-02-26T05:37:01;94497.09;;;0.73;100.00
62510;BME280;48558;48.242;11.654;2024-02-26T05:41:15;94483.53;;;0.51;100.00
62510;BME280;48558;48.242;11.654;2024-02-26T05:45:28;94487.63;;;0.56;100.00
62510;BME280;48558;48.242;11.654;2024-02-26T05:49:41;94495.72;;;0.47;100.00
62510;BME280;48558;48.242;11.654;2024-02-26T05:53:54;94493.88;;;0.44;100.00
62510;BME280;48558;48.242;11.654;2024-02-26T05:58:07;94488.88;;;0.42;100.00
62510;BME280;48558;48.242;11.654;2024-02-26T06:02:19;94501.63;;;0.54;100.00
62510;BME280;48558;48.242;11.654;2024-02-26T06:06:32;94499.88;;;0.60;100.00
62510;BME280;48558;48.242;11.654;2024-02-26T06:10:45;94518.00;;;1.07;100.00
62510;BME280;48558;48.242;11.654;2024-02-26T06:14:57;94521.22;;;1.14;100.00
62510;BME280;48558;48.242;11.654;2024-02-26T06:19:13;94519.44;;;1.20;100.00
62510;BME280;48558;48.242;11.654;2024-02-26T06:23:26;94536.06;;;1.44;100.00
62510;BME280;48558;48.242;11.654;2024-02-26T06:27:39;94525.94;;;1.44;100.00
62510;BME280;48558;48.242;11.654;2024-02-26T06:31:52;94514.72;;;1.42;100.00
62510;BME280;48558;48.242;11.654;2024-02-26T06:36:04;94543.16;;;1.81;100.00
62510;BME280;48558;48.242;11.654;2024-02-26T06:40:17;94550.47;;;1.93;100.00
62510;BME280;48558;48.242;11.654;2024-02-26T06:44:29;94559.72;;;1.96;100.00
62510;BME280;48558;48.242;11.654;2024-02-26T06:48:51;94564.28;;;2.08;100.00
62510;BME280;48558;48.242;11.654;2024-02-26T06:53:06;94568.75;;;2.33;100.00
62510;BME280;48558;48.242;11.654;2024-02-26T06:57:20;94571.34;;;2.54;100.00
62510;BME280;48558;48.242;11.654;2024-02-26T07:01:33;94573.47;;;2.68;100.00
62510;BME280;48558;48.242;11.654;2024-02-26T07:05:45;94576.06;;;2.81;100.00
62510;BME280;48558;48.242;11.654;2024-02-26T07:09:58;94587.13;;;2.77;100.00
62510;BME280;48558;48.242;11.654;2024-02-26T07:14:12;94592.72;;;2.92;100.00
62510;BME280;48558;48.242;11.654;2024-02-26T07:18:24;94519.81;;;2.29;100.00
62510;BME280;48558;48.242;11.654;2024-02-26T07:22:37;94578.94;;;3.05;100.00
62510;BME280;48558;48.242;11.654;2024-02-26T07:26:50;94594.56;;;2.95;100.00
62510;BME280;48558;48.242;11.654;2024-02-26T07:31:02;94585.59;;;3.31;100.00
62510;BME280;48558;48.242;11.654;2024-02-26T07:35:15;94585.13;;;3.32;100.00
62510;BME280;48558;48.242;11.654;2024-02-26T07:39:29;94572.41;;;3.20;100.00
62510;BME280;48558;48.242;11.654;2024-02-26T07:43:42;94581.03;;;3.46;100.00
62510;BME280;48558;48.242;11.654;2024-02-26T07:47:55;94586.44;;;3.64;100.00
62510;BME280;48558;48.242;11.654;2024-02-26T07:52:08;94578.75;;;3.95;100.00
62510;BME280;48558;48.242;11.654;2024-02-26T07:56:21;94588.28;;;4.32;100.00
62510;BME280;48558;48.242;11.654;2024-02-26T08:00:33;94564.69;;;4.68;100.00
62510;BME280;48558;48.242;11.654;2024-02-26T08:04:46;94590.78;;;5.16;100.00
62510;BME280;48558;48.242;11.654;2024-02-26T08:08:58;94582.91;;;4.94;100.00
62510;BME280;48558;48.242;11.654;2024-02-26T08:13:11;94602.88;;;5.24;100.00
62510;BME280;48558;48.242;11.654;2024-02-26T08:17:23;94601.28;;;5.18;100.00
62510;BME280;48558;48.242;11.654;2024-02-26T08:21:36;94608.03;;;5.60;100.00
62510;BME280;48558;48.242;11.654;2024-02-26T08:25:49;94602.94;;;5.97;99.65
62510;BME280;48558;48.242;11.654;2024-02-26T08:30:02;94600.41;;;5.94;100.00
62510;BME280;48558;48.242;11.654;2024-02-26T08:34:15;94598.03;;;5.57;99.13
62510;BME280;48558;48.242;11.654;2024-02-26T08:38:28;94602.28;;;6.17;100.00
62510;BME280;48558;48.242;11.654;2024-02-26T08:42:41;94578.66;;;6.05;94.23
62510;BME280;48558;48.242;11.654;2024-02-26T08:46:53;94614.44;;;6.45;90.65
62510;BME280;48558;48.242;11.654;2024-02-26T08:51:07;94616.38;;;6.94;89.73
62510;BME280;48558;48.242;11.654;2024-02-26T08:55:20;94632.09;;;7.34;86.35
62510;BME280;48558;48.242;11.654;2024-02-26T08:59:33;94648.44;;;7.88;82.08
62510;BME280;48558;48.242;11.654;2024-02-26T09:03:47;94641.41;;;7.62;78.82
62510;BME280;48558;48.242;11.654;2024-02-26T09:08:00;94630.25;;;7.05;80.36
62510;BME280;48558;48.242;11.654;2024-02-26T09:12:13;94630.31;;;8.02;79.69
62510;BME280;48558;48.242;11.654;2024-02-26T09:16:26;94627.81;;;7.53;79.68
62510;BME280;48558;48.242;11.654;2024-02-26T09:20:39;94624.06;;;8.27;78.90
62510;BME280;48558;48.242;11.654;2024-02-26T09:24:51;94617.75;;;8.52;79.32
62510;BME280;48558;48.242;11.654;2024-02-26T09:29:06;94616.78;;;8.98;75.58
62510;BME280;48558;48.242;11.654;2024-02-26T09:33:20;94618.31;;;9.04;72.96
62510;BME280;48558;48.242;11.654;2024-02-26T09:37:33;94613.44;;;9.42;71.11
62510;BME280;48558;48.242;11.654;2024-02-26T09:41:46;94620.03;;;9.61;67.66
62510;BME280;48558;48.242;11.654;2024-02-26T09:45:59;94613.41;;;10.28;67.38
62510;BME280;48558;48.242;11.654;2024-02-26T09:50:17;94613.16;;;10.37;66.86
62510;BME280;48558;48.242;11.654;2024-02-26T09:54:31;94613.13;;;10.87;67.26
62510;BME280;48558;48.242;11.654;2024-02-26T09:58:44;94613.91;;;10.60;67.22
62510;BME280;48558;48.242;11.654;2024-02-26T10:03:05;94597.91;;;11.32;63.30
62510;BME280;48558;48.242;11.654;2024-02-26T10:07:18;94607.53;;;12.18;64.08
62510;BME280;48558;48.242;11.654;2024-02-26T10:11:33;94590.09;;;11.36;61.13
62510;BME280;48558;48.242;11.654;2024-02-26T10:15:47;94600.81;;;12.44;62.46
62510;BME280;48558;48.242;11.654;2024-02-26T10:20:17;94596.03;;;12.03;62.99
62510;BME280;48558;48.242;11.654;2024-02-26T10:24:30;94599.00;;;11.65;64.26
62510;BME280;48558;48.242;11.654;2024-02-26T10:28:44;94604.00;;;11.14;63.71
62510;BME280;48558;48.242;11.654;2024-02-26T10:33:01;94606.72;;;11.25;63.22
62510;BME280;48558;48.242;11.654;2024-02-26T10:37:14;94596.63;;;11.39;64.08
62510;BME280;48558;48.242;11.654;2024-02-26T10:41:27;94579.09;;;11.25;62.62
62510;BME280;48558;48.242;11.654;2024-02-26T10:45:40;94593.38;;;11.29;62.68
62510;BME280;48558;48.242;11.654;2024-02-26T10:49:56;94579.69;;;11.53;63.20
62510;BME280;48558;48.242;11.654;2024-02-26T10:54:08;94589.16;;;11.17;65.46
62510;BME280;48558;48.242;11.654;2024-02-26T10:58:27;94573.28;;;11.81;60.18
62510;BME280;48558;48.242;11.654;2024-02-26T11:02:41;94576.16;;;11.59;63.18
62510;BME280;48558;48.242;11.654;2024-02-26T11:06:57;94589.75;;;11.57;63.58
62510;BME280;48558;48.242;11.654;2024-02-26T11:11:11;94602.00;;;12.78;61.38
62510;BME280;48558;48.242;11.654;2024-02-26T11:15:28;94599.44;;;13.10;57.55
62510;BME280;48558;48.242;11.654;2024-02-26T11:19:42;94579.44;;;13.41;57.50
62510;BME280;48558;48.242;11.654;2024-02-26T11:23:56;94589.19;;;14.22;57.50
62510;BME280;48558;48.242;11.654;2024-02-26T11:28:12;94595.09;;;13.38;54.99
62510;BME280;48558;48.242;11.654;2024-02-26T11:32:28;94605.84;;;13.47;58.01
62510;BME280;48558;48.242;11.654;2024-02-26T11:36:42;94603.41;;;14.00;55.65
62510;BME280;48558;48.242;11.654;2024-02-26T11:40:55;94626.19;;;14.80;52.51
62510;BME280;48558;48.242;11.654;2024-02-26T11:49:52;94621.28;;;14.86;52.92
62510;BME280;48558;48.242;11.654;2024-02-26T11:54:05;94627.81;;;15.47;53.09
62510;BME280;48558;48.242;11.654;2024-02-26T11:58:17;94609.09;;;14.89;50.68
62510;BME280;48558;48.242;11.654;2024-02-26T12:07:03;94612.75;;;16.02;51.67
62510;BME280;48558;48.242;11.654;2024-02-26T12:11:16;94622.16;;;15.99;49.84
62510;BME280;48558;48.242;11.654;2024-02-26T12:15:33;94619.94;;;15.06;51.05
62510;BME280;48558;48.242;11.654;2024-02-26T12:19:54;94619.63;;;13.53;54.05
62510;BME280;48558;48.242;11.654;2024-02-26T12:24:10;94608.72;;;13.98;54.67
62510;BME280;48558;48.242;11.654;2024-02-26T12:28:29;94595.22;;;13.70;53.55
62510;BME280;48558;48.242;11.654;2024-02-26T12:32:41;94614.16;;;15.30;49.77
62510;BME280;48558;48.242;11.654;2024-02-26T12:36:54;94592.97;;;14.56;55.44
62510;BME280;48558;48.242;11.654;2024-02-26T12:41:07;94604.59;;;13.67;54.37
62510;BME280;48558;48.242;11.654;2024-02-26T12:45:19;94616.75;;;15.15;52.50
62510;BME280;48558;48.242;11.654;2024-02-26T12:49:32;94624.06;;;15.57;51.67
62510;BME280;48558;48.242;11.654;2024-02-26T12:53:47;94649.06;;;14.55;51.00
62510;BME280;48558;48.242;11.654;2024-02-26T12:58:02;94649.19;;;14.81;49.40
62510;BME280;48558;48.242;11.654;2024-02-26T13:02:15;94638.06;;;14.81;49.22
62510;BME280;48558;48.242;11.654;2024-02-26T13:06:27;94637.50;;;14.69;49.51
62510;BME280;48558;48.242;11.654;2024-02-26T13:10:40;94639.13;;;14.09;53.50
62510;BME280;48558;48.242;11.654;2024-02-26T13:15:00;94621.28;;;15.44;52.18
62510;BME280;48558;48.242;11.654;2024-02-26T13:19:13;94641.72;;;14.89;52.44
62510;BME280;48558;48.242;11.654;2024-02-26T13:23:26;94636.44;;;15.43;48.64
62510;BME280;48558;48.242;11.654;2024-02-26T13:27:38;94636.69;;;14.87;48.60
62510;BME280;48558;48.242;11.654;2024-02-26T13:31:58;94648.47;;;14.62;51.23
62510;BME280;48558;48.242;11.654;2024-02-26T13:36:11;94641.34;;;15.24;51.09
62510;BME280;48558;48.242;11.654;2024-02-26T13:40:25;94629.34;;;15.16;51.39
62510;BME280;48558;48.242;11.654;2024-02-26T13:44:38;94643.13;;;15.08;51.45
62510;BME280;48558;48.242;11.654;2024-02-26T13:48:53;94646.38;;;15.39;48.14
62510;BME280;48558;48.242;11.654;2024-02-26T13:53:07;94628.19;;;16.71;45.98
62510;BME280;48558;48.242;11.654;2024-02-26T13:57:20;94639.56;;;15.79;48.39
62510;BME280;48558;48.242;11.654;2024-02-26T14:01:32;94654.97;;;14.83;50.34
62510;BME280;48558;48.242;11.654;2024-02-26T14:05:46;94652.84;;;14.57;53.49
62510;BME280;48558;48.242;11.654;2024-02-26T14:09:59;94661.53;;;14.67;52.58
62510;BME280;48558;48.242;11.654;2024-02-26T14:14:12;94673.31;;;14.73;51.36
62510;BME280;48558;48.242;11.654;2024-02-26T14:18:25;94665.91;;;12.91;53.40
62510;BME280;48558;48.242;11.654;2024-02-26T14:22:38;94679.66;;;13.32;53.05
62510;BME280;48558;48.242;11.654;2024-02-26T14:26:51;94692.72;;;14.04;52.40
62510;BME280;48558;48.242;11.654;2024-02-26T14:31:05;94688.84;;;13.70;52.66
62510;BME280;48558;48.242;11.654;2024-02-26T14:35:19;94687.50;;;12.98;52.38
62510;BME280;48558;48.242;11.654;2024-02-26T14:39:32;94700.03;;;12.40;54.47
62510;BME280;48558;48.242;11.654;2024-02-26T14:43:45;94699.94;;;12.10;54.66
62510;BME280;48558;48.242;11.654;2024-02-26T14:47:58;94713.34;;;11.95;55.11
62510;BME280;48558;48.242;11.654;2024-02-26T14:52:11;94700.53;;;11.97;55.66
62510;BME280;48558;48.242;11.654;2024-02-26T14:56:23;94711.97;;;11.55;57.03
62510;BME280;48558;48.242;11.654;2024-02-26T15:00:36;94710.94;;;11.75;57.10
62510;BME280;48558;48.242;11.654;2024-02-26T15:04:49;94711.97;;;11.55;58.50
62510;BME280;48558;48.242;11.654;2024-02-26T15:09:01;94721.78;;;11.50;59.25
62510;BME280;48558;48.242;11.654;2024-02-26T15:13:16;94719.09;;;11.28;59.41
62510;BME280;48558;48.242;11.654;2024-02-26T15:17:30;94712.06;;;11.05;60.22
62510;BME280;48558;48.242;11.654;2024-02-26T15:21:47;94726.66;;;11.06;60.26
62510;BME280;48558;48.242;11.654;2024-02-26T15:26:00;94740.94;;;11.04;60.27
62510;BME280;48558;48.242;11.654;2024-02-26T15:30:12;94722.88;;;10.75;60.45
62510;BME280;48558;48.242;11.654;2024-02-26T15:34:25;94743.97;;;10.78;61.29
62510;BME280;48558;48.242;11.654;2024-02-26T15:38:38;94748.50;;;10.65;62.09
62510;BME280;48558;48.242;11.654;2024-02-26T15:42:52;94748.50;;;10.65;62.11
62510;BME280;48558;48.242;11.654;2024-02-26T15:47:05;94752.47;;;10.42;63.00
62510;BME280;48558;48.242;11.654;2024-02-26T15:51:22;94759.50;;;10.48;63.77
62510;BME280;48558;48.242;11.654;2024-02-26T15:55:38;94763.00;;;10.38;63.93
62510;BME280;48558;48.242;11.654;2024-02-26T15:59:51;94777.53;;;10.33;64.97
62510;BME280;48558;48.242;11.654;2024-02-26T16:04:05;94783.53;;;10.26;64.91
62510;BME280;48558;48.242;11.654;2024-02-26T16:08:21;94779.47;;;10.16;66.12
62510;BME280;48558;48.242;11.654;2024-02-26T16:12:47;94775.94;;;10.09;66.48
62510;BME280;48558;48.242;11.654;2024-02-26T16:21:36;94769.91;;;10.05;68.18
62510;BME280;48558;48.242;11.654;2024-02-26T16:25:49;94778.19;;;10.05;68.70
62510;BME280;48558;48.242;11.654;2024-02-26T16:30:05;94771.09;;;9.88;69.89
62510;BME280;48558;48.242;11.654;2024-02-26T16:34:20;94772.34;;;9.92;69.37
62510;BME280;48558;48.242;11.654;2024-02-26T16:38:32;94773.09;;;9.93;69.55
62510;BME280;48558;48.242;11.654;2024-02-26T16:42:49;94768.34;;;9.93;68.26
62510;BME280;48558;48.242;11.654;2024-02-26T16:47:03;94767.56;;;9.87;68.71
62510;BME280;48558;48.242;11.654;2024-02-26T16:51:16;94755.72;;;9.76;68.72
62510;BME280;48558;48.242;11.654;2024-02-26T16:55:29;94766.56;;;9.85;67.30
62510;BME280;48558;48.242;11.654;2024-02-26T16:59:41;94763.03;;;9.84;66.80
62510;BME280;48558;48.242;11.654;2024-02-26T17:03:54;94763.25;;;9.75;67.51
62510;BME280;48558;48.242;11.654;2024-02-26T17:08:06;94769.81;;;9.83;67.46
62510;BME280;48558;48.242;11.654;2024-02-26T17:12:19;94776.06;;;9.78;67.17
62510;BME280;48558;48.242;11.654;2024-02-26T17:16:34;94790.53;;;9.68;67.82
62510;BME280;48558;48.242;11.654;2024-02-26T17:20:48;94788.72;;;9.59;69.09
62510;BME280;48558;48.242;11.654;2024-02-26T17:25:01;94773.91;;;9.51;69.17
62510;BME280;48558;48.242;11.654;2024-02-26T17:29:14;94792.88;;;9.44;70.25
62510;BME280;48558;48.242;11.654;2024-02-26T17:33:27;94802.19;;;9.46;71.00
62510;BME280;48558;48.242;11.654;2024-02-26T17:37:43;94804.16;;;9.40;71.75
62510;BME280;48558;48.242;11.654;2024-02-26T17:41:56;94810.56;;;9.26;72.88
62510;BME280;48558;48.242;11.654;2024-02-26T17:46:09;94821.06;;;9.22;73.27
62510;BME280;48558;48.242;11.654;2024-02-26T17:50:21;94841.91;;;9.28;74.45
62510;BME280;48558;48.242;11.654;2024-02-26T17:54:34;94843.28;;;9.13;75.86
62510;BME280;48558;48.242;11.654;2024-02-26T17:58:47;94852.56;;;9.15;77.47
62510;BME280;48558;48.242;11.654;2024-02-26T18:03:07;94848.63;;;8.96;78.99
62510;BME280;48558;48.242;11.654;2024-02-26T18:07:20;94853.94;;;9.00;79.19
62510;BME280;48558;48.242;11.654;2024-02-26T18:11:33;94864.88;;;8.89;80.22
62510;BME280;48558;48.242;11.654;2024-02-26T18:15:46;94855.56;;;8.86;80.36
62510;BME280;48558;48.242;11.654;2024-02-26T18:19:59;94863.00;;;8.80;81.51
62510;BME280;48558;48.242;11.654;2024-02-26T18:24:12;94872.63;;;8.90;81.81
62510;BME280;48558;48.242;11.654;2024-02-26T18:28:26;94885.69;;;8.70;82.82
62510;BME280;48558;48.242;11.654;2024-02-26T18:32:39;94872.50;;;8.53;84.24
62510;BME280;48558;48.242;11.654;2024-02-26T18:36:52;94885.56;;;8.58;84.80
62510;BME280;48558;48.242;11.654;2024-02-26T18:41:04;94891.00;;;8.53;85.56
62510;BME280;48558;48.242;11.654;2024-02-26T18:45:18;94881.38;;;8.43;86.91
62510;BME280;48558;48.242;11.654;2024-02-26T18:49:31;94887.34;;;8.21;89.24
62510;BME280;48558;48.242;11.654;2024-02-26T18:53:48;94886.25;;;8.13;89.96
62510;BME280;48558;48.242;11.654;2024-02-26T18:58:01;94894.69;;;8.10;90.53
62510;BME280;48558;48.242;11.654;2024-02-26T19:02:13;94903.06;;;8.01;92.94
62510;BME280;48558;48.242;11.654;2024-02-26T19:06:26;94894.38;;;7.87;93.04
62510;BME280;48558;48.242;11.654;2024-02-26T19:10:41;94903.88;;;7.86;93.58
62510;BME280;48558;48.242;11.654;2024-02-26T19:14:54;94898.84;;;7.85;95.13
62510;BME280;48558;48.242;11.654;2024-02-26T19:19:07;94885.88;;;7.85;94.08
62510;BME280;48558;48.242;11.654;2024-02-26T19:23:21;94893.22;;;7.94;93.61
62510;BME280;48558;48.242;11.654;2024-02-26T19:27:33;94897.41;;;7.89;93.25
62510;BME280;48558;48.242;11.654;2024-02-26T19:31:46;94912.84;;;7.67;93.65
62510;BME280;48558;48.242;11.654;2024-02-26T19:35:59;94901.09;;;7.66;92.96
62510;BME280;48558;48.242;11.654;2024-02-26T19:40:17;94922.16;;;7.55;93.63
62510;BME280;48558;48.242;11.654;2024-02-26T19:44:30;94936.84;;;7.52;94.28
62510;BME280;48558;48.242;11.654;2024-02-26T19:48:43;94930.34;;;7.35;94.98
62510;BME280;48558;48.242;11.654;2024-02-26T19:52:56;94932.41;;;7.25;95.52
62510;BME280;48558;48.242;11.654;2024-02-26T19:57:09;94940.66;;;7.25;96.38
62510;BME280;48558;48.242;11.654;2024-02-26T20:01:22;94951.34;;;6.94;98.83
62510;BME280;48558;48.242;11.654;2024-02-26T20:05:35;94969.06;;;7.07;98.23
62510;BME280;48558;48.242;11.654;2024-02-26T20:09:48;94977.69;;;6.62;100.00
62510;BME280;48558;48.242;11.654;2024-02-26T20:14:01;94972.34;;;6.59;100.00
62510;BME280;48558;48.242;11.654;2024-02-26T20:18:13;94981.53;;;6.56;100.00
62510;BME280;48558;48.242;11.654;2024-02-26T20:22:26;94983.75;;;6.42;100.00
62510;BME280;48558;48.242;11.654;2024-02-26T20:26:40;94974.88;;;6.47;100.00
62510;BME280;48558;48.242;11.654;2024-02-26T20:30:53;94978.13;;;6.13;100.00
62510;BME280;48558;48.242;11.654;2024-02-26T20:35:05;94975.00;;;6.06;100.00
62510;BME280;48558;48.242;11.654;2024-02-26T20:39:20;94973.13;;;6.12;100.00
62510;BME280;48558;48.242;11.654;2024-02-26T20:43:33;94974.94;;;6.15;100.00
62510;BME280;48558;48.242;11.654;2024-02-26T20:47:46;94990.44;;;5.94;100.00
62510;BME280;48558;48.242;11.654;2024-02-26T20:52:03;94986.00;;;5.97;100.00
62510;BME280;48558;48.242;11.654;2024-02-26T20:56:16;94980.56;;;5.78;100.00
62510;BME280;48558;48.242;11.654;2024-02-26T21:00:29;94989.09;;;5.80;100.00
62510;BME280;48558;48.242;11.654;2024-02-26T21:04:42;94993.84;;;6.13;100.00
62510;BME280;48558;48.242;11.654;2024-02-26T21:08:55;94997.16;;;6.17;100.00
62510;BME280;48558;48.242;11.654;2024-02-26T21:13:08;95002.56;;;6.02;100.00
62510;BME280;48558;48.242;11.654;2024-02-26T21:17:21;95006.91;;;5.85;100.00
62510;BME280;48558;48.242;11.654;2024-02-26T21:21:34;95002.31;;;5.82;100.00
62510;BME280;48558;48.242;11.654;2024-02-26T21:25:47;95028.09;;;5.85;100.00
62510;BME280;48558;48.242;11.654;2024-02-26T21:30:00;95006.25;;;5.99;100.00
62510;BME280;48558;48.242;11.654;2024-02-26T21:34:13;94986.22;;;5.75;100.00
62510;BME280;48558;48.242;11.654;2024-02-26T21:38:26;95015.72;;;5.80;100.00
62510;BME280;48558;48.242;11.654;2024-02-26T21:42:52;95020.16;;;5.77;100.00
62510;BME280;48558;48.242;11.654;2024-02-26T21:47:05;95012.63;;;5.54;100.00
62510;BME280;48558;48.242;11.654;2024-02-26T21:51:18;95020.84;;;5.54;100.00
62510;BME280;48558;48.242;11.654;2024-02-26T21:55:30;95024.34;;;5.46;100.00
62510;BME280;48558;48.242;11.654;2024-02-26T21:59:44;95026.00;;;5.61;100.00
62510;BME280;48558;48.242;11.654;2024-02-26T22:03:57;95028.13;;;5.57;100.00
62510;BME280;48558;48.242;11.654;2024-02-26T22:08:09;95039.13;;;5.39;100.00
62510;BME280;48558;48.242;11.654;2024-02-26T22:12:22;95050.56;;;5.38;100.00
62510;BME280;48558;48.242;11.654;2024-02-26T22:16:35;95053.16;;;5.32;100.00
62510;BME280;48558;48.242;11.654;2024-02-26T22:20:47;95069.56;;;5.41;100.00
62510;BME280;48558;48.242;11.654;2024-02-26T22:25:00;95054.41;;;5.04;100.00